Youngstown, Florida
Current Conditions -  °F | °C
As of 5:53 PM on Saturday 20 Dec 2014 (Local Time) from KECP Reporting Station
Light Rain Light Rain  
Wind Chill: 54°   Ceiling: 3200
Heat Index: 54°   Visibility: 10mi
Dew Point: 51°   Wind: 10mph
Humidity: 90%   Direction: 20°NNE
Pressure: 30.08"   Gusts: NA
Location:  30.36°N, 85.44°W
Report Text: KECP 202353Z 02009KT 10SM -RA OVC032 12/11 A3008 RMK AO2 RAB41 SLP197 P0001 60003 T01220106 10128 20117 51006 $
Loading
Personal Weather Stations






























Interactive Weather Map New forecast layout! Learn more

10-Day Weather Forecast

Advertisements
Track Severe Weather on mobile